Time;durP1;ratioP1;P1;durP2;ratioP2;P2;SDS_P1;SDS_P2;PMS_P1;PMS_P2;Temp;Humidity;BMP_temperature;BMP_pressure;BME280_temperature;BME280_humidity;BME280_pressure;Samples;Min_cycle;Max_cycle;Signal;HPM_P1;HPM_P2
2021/10/10 00:02:05;;;;;;;37.90;19.92;;;;;;;;;;4916825;29;20026;-71
2021/10/10 00:04:32;;;;;;;27.60;18.27;;;;;;;;;;4916732;29;20483;-70
2021/10/10 00:06:58;;;;;;;33.88;20.60;;;;;;;;;;4917749;29;20167;-70
2021/10/10 00:09:24;;;;;;;28.10;17.60;;;;;;;;;;4917068;29;20031;-70
2021/10/10 00:11:50;;;;;;;28.30;18.50;;;;;;;;;;4916393;29;20774;-71
2021/10/10 00:14:16;;;;;;;25.95;17.38;;;;;;;;;;4916736;29;20020;-72
2021/10/10 00:16:42;;;;;;;31.85;17.33;;;;;;;;;;4916653;29;20036;-71
2021/10/10 00:19:08;;;;;;;29.92;16.80;;;;;;;;;;4916729;29;20377;-71
2021/10/10 00:21:35;;;;;;;28.55;17.25;;;;;;;;;;4916059;29;20371;-70
2021/10/10 00:24:01;;;;;;;32.00;17.58;;;;;;;;;;4916535;29;20031;-71
2021/10/10 00:26:27;;;;;;;24.13;16.30;;;;;;;;;;4916527;29;20035;-71
2021/10/10 00:28:54;;;;;;;27.60;17.15;;;;;;;;;;4916374;29;20103;-71
2021/10/10 00:31:20;;;;;;;26.20;15.95;;;;;;;;;;4916336;29;20127;-71
2021/10/10 00:33:46;;;;;;;28.73;16.13;;;;;;;;;;4915918;29;20079;-69
2021/10/10 00:36:13;;;;;;;26.08;16.27;;;;;;;;;;4917192;29;20029;-71
2021/10/10 00:38:42;;;;;;;29.85;15.98;;;;;;;;;;4919780;29;20099;-70
2021/10/10 00:41:08;;;;;;;25.02;15.23;;;;;;;;;;4913265;29;20032;-70
2021/10/10 00:43:34;;;;;;;25.77;14.98;;;;;;;;;;4916229;29;20107;-71
2021/10/10 00:46:00;;;;;;;28.40;15.57;;;;;;;;;;4915205;29;20043;-71
2021/10/10 00:48:26;;;;;;;26.95;16.75;;;;;;;;;;4916445;29;20016;-71
2021/10/10 00:50:52;;;;;;;30.00;15.75;;;;;;;;;;4915809;29;20039;-71
2021/10/10 00:53:19;;;;;;;29.40;15.77;;;;;;;;;;4915968;29;20024;-70
2021/10/10 00:55:53;;;;;;;26.67;14.95;;;;;;;;;;4915579;29;20111;-71
2021/10/10 00:58:25;;;;;;;24.42;14.52;;;;;;;;;;4916002;29;20039;-70
2021/10/10 01:00:52;;;;;;;19.83;13.60;;;;;;;;;;4915852;29;20055;-72
2021/10/10 01:03:19;;;;;;;24.10;14.45;;;;;;;;;;4914690;29;20393;-71
2021/10/10 01:05:45;;;;;;;19.88;13.23;;;;;;;;;;4915525;29;20067;-71
2021/10/10 01:08:15;;;;;;;21.48;13.25;;;;;;;;;;4915346;29;20107;-71
2021/10/10 01:10:42;;;;;;;17.60;12.68;;;;;;;;;;4915064;29;20031;-71
2021/10/10 01:13:08;;;;;;;17.25;11.63;;;;;;;;;;4915907;29;20032;-72
2021/10/10 01:15:35;;;;;;;19.60;12.48;;;;;;;;;;4915112;29;20767;-71
2021/10/10 01:18:01;;;;;;;19.77;12.40;;;;;;;;;;4915323;29;20115;-69
2021/10/10 01:20:27;;;;;;;17.00;10.27;;;;;;;;;;4915264;29;20020;-71
2021/10/10 01:22:54;;;;;;;18.52;11.20;;;;;;;;;;4915823;29;20079;-72
2021/10/10 01:25:20;;;;;;;16.58;11.05;;;;;;;;;;4914754;29;20466;-71
2021/10/10 01:27:46;;;;;;;15.65;10.13;;;;;;;;;;4915675;29;20064;-69
2021/10/10 01:30:12;;;;;;;16.58;10.55;;;;;;;;;;4914772;29;20053;-69
2021/10/10 01:32:38;;;;;;;20.77;10.48;;;;;;;;;;4915132;29;20036;-69
2021/10/10 01:35:04;;;;;;;15.38;10.88;;;;;;;;;;4909896;29;20020;-72
2021/10/10 01:37:30;;;;;;;17.60;10.90;;;;;;;;;;4915559;29;20043;-70
2021/10/10 01:39:56;;;;;;;15.32;9.85;;;;;;;;;;4914735;29;20087;-68
2021/10/10 01:42:22;;;;;;;18.20;10.50;;;;;;;;;;4915627;29;20091;-72
2021/10/10 01:44:48;;;;;;;17.63;10.73;;;;;;;;;;4916477;29;20055;-69
2021/10/10 01:47:14;;;;;;;15.88;9.57;;;;;;;;;;4914958;29;20028;-71
2021/10/10 01:49:40;;;;;;;18.52;10.40;;;;;;;;;;4914988;29;20099;-68
2021/10/10 01:52:07;;;;;;;15.98;10.38;;;;;;;;;;4915146;29;20038;-71
2021/10/10 01:54:33;;;;;;;14.05;10.27;;;;;;;;;;4915220;29;20155;-70
2021/10/10 01:56:59;;;;;;;16.02;9.82;;;;;;;;;;4914928;29;20044;-68
2021/10/10 01:59:25;;;;;;;15.88;10.80;;;;;;;;;;4918854;29;20382;-71
2021/10/10 02:01:51;;;;;;;19.38;11.35;;;;;;;;;;4919343;29;20036;-71
2021/10/10 02:04:17;;;;;;;18.48;12.35;;;;;;;;;;4918460;29;20107;-72
2021/10/10 02:06:43;;;;;;;17.65;11.63;;;;;;;;;;4918414;29;20032;-71
2021/10/10 02:09:09;;;;;;;17.95;11.88;;;;;;;;;;4918425;29;20032;-69
2021/10/10 02:11:35;;;;;;;15.70;11.43;;;;;;;;;;4918517;29;20505;-71
2021/10/10 02:14:01;;;;;;;18.92;12.52;;;;;;;;;;4911228;29;20553;-71
2021/10/10 02:16:27;;;;;;;15.98;11.93;;;;;;;;;;4907822;29;20457;-69
2021/10/10 02:18:54;;;;;;;20.33;11.70;;;;;;;;;;4902875;29;20032;-69
2021/10/10 02:21:20;;;;;;;22.65;12.60;;;;;;;;;;4905413;29;20382;-67
2021/10/10 02:23:46;;;;;;;21.35;14.15;;;;;;;;;;4901792;29;20082;-69
2021/10/10 02:26:12;;;;;;;22.65;14.55;;;;;;;;;;4912033;29;20032;-69
2021/10/10 02:28:38;;;;;;;22.25;13.93;;;;;;;;;;4902621;29;20418;-69
2021/10/10 02:31:04;;;;;;;21.70;13.80;;;;;;;;;;4923452;29;20378;-68
2021/10/10 02:33:30;;;;;;;23.52;14.65;;;;;;;;;;4927384;29;20106;-70
2021/10/10 02:35:56;;;;;;;25.38;14.80;;;;;;;;;;4922111;29;20028;-69
2021/10/10 02:38:22;;;;;;;22.45;15.23;;;;;;;;;;4924109;29;20080;-72
2021/10/10 02:40:48;;;;;;;24.55;15.75;;;;;;;;;;4921053;29;20391;-71
2021/10/10 02:43:14;;;;;;;23.60;16.83;;;;;;;;;;4922379;29;20148;-71
2021/10/10 02:45:40;;;;;;;29.08;17.60;;;;;;;;;;4926700;29;20024;-71
2021/10/10 02:48:06;;;;;;;25.55;17.65;;;;;;;;;;4923070;29;20390;-71
2021/10/10 02:50:33;;;;;;;26.85;18.45;;;;;;;;;;4922506;29;20500;-71
2021/10/10 02:52:59;;;;;;;29.05;20.33;;;;;;;;;;4923046;29;20032;-70
2021/10/10 02:55:25;;;;;;;33.85;20.30;;;;;;;;;;4923821;29;20027;-72
2021/10/10 02:57:51;;;;;;;36.55;23.77;;;;;;;;;;4922239;29;20074;-71
2021/10/10 03:00:17;;;;;;;43.45;25.70;;;;;;;;;;4920856;29;20080;-72
2021/10/10 03:02:43;;;;;;;48.40;29.38;;;;;;;;;;4920188;29;20120;-70
2021/10/10 03:05:09;;;;;;;50.53;29.83;;;;;;;;;;4918031;29;20076;-71
2021/10/10 03:07:35;;;;;;;48.85;28.75;;;;;;;;;;4917757;29;20028;-72
2021/10/10 03:10:01;;;;;;;48.53;28.83;;;;;;;;;;4918117;29;20028;-71
2021/10/10 03:12:28;;;;;;;49.83;28.40;;;;;;;;;;4917945;29;20112;-71
2021/10/10 03:14:54;;;;;;;50.58;28.70;;;;;;;;;;4915928;29;20032;-71
2021/10/10 03:17:20;;;;;;;53.10;27.80;;;;;;;;;;4916872;29;20036;-71
2021/10/10 03:19:46;;;;;;;46.03;26.65;;;;;;;;;;4917181;29;20087;-72
2021/10/10 03:22:12;;;;;;;48.05;25.83;;;;;;;;;;4915174;29;20059;-72
2021/10/10 03:24:38;;;;;;;42.50;26.00;;;;;;;;;;4907902;29;20016;-71
2021/10/10 03:27:04;;;;;;;41.28;25.08;;;;;;;;;;4933114;29;20435;-71
2021/10/10 03:29:30;;;;;;;42.03;25.73;;;;;;;;;;4917319;29;20028;-70
2021/10/10 03:31:56;;;;;;;37.05;23.35;;;;;;;;;;4920176;29;20029;-70
2021/10/10 03:34:22;;;;;;;40.67;25.02;;;;;;;;;;4917597;29;20076;-71
2021/10/10 03:36:50;;;;;;;40.65;23.33;;;;;;;;;;4916989;29;20498;-71
2021/10/10 03:39:16;;;;;;;40.55;22.35;;;;;;;;;;4917033;29;20533;-71
2021/10/10 03:41:42;;;;;;;35.13;21.63;;;;;;;;;;4917303;29;20035;-72
2021/10/10 03:44:09;;;;;;;38.83;22.20;;;;;;;;;;4917199;29;20039;-71
2021/10/10 03:46:35;;;;;;;39.65;22.58;;;;;;;;;;4917056;29;20039;-71
2021/10/10 03:49:01;;;;;;;35.95;22.77;;;;;;;;;;4916839;29;20554;-71
2021/10/10 03:51:27;;;;;;;39.70;24.80;;;;;;;;;;4916686;29;20470;-71
2021/10/10 03:56:22;;;;;;;41.03;22.92;;;;;;;;;;4915659;29;20050;-71
2021/10/10 03:58:48;;;;;;;43.50;23.92;;;;;;;;;;4916716;29;20100;-69
2021/10/10 04:01:14;;;;;;;37.63;23.33;;;;;;;;;;4916811;29;20016;-71
2021/10/10 04:03:40;;;;;;;40.35;23.52;;;;;;;;;;4925097;29;20441;-71
2021/10/10 04:06:06;;;;;;;35.85;22.17;;;;;;;;;;4916759;29;20032;-71
2021/10/10 04:08:32;;;;;;;39.42;22.45;;;;;;;;;;4916867;29;20103;-71
2021/10/10 04:10:58;;;;;;;31.00;22.52;;;;;;;;;;4916441;29;20032;-70
2021/10/10 04:13:24;;;;;;;37.78;22.70;;;;;;;;;;4916406;29;20079;-70
2021/10/10 04:15:50;;;;;;;37.78;22.02;;;;;;;;;;4914613;29;20032;-70
2021/10/10 04:18:16;;;;;;;36.40;22.10;;;;;;;;;;4915934;29;20060;-70
2021/10/10 04:20:42;;;;;;;35.85;22.05;;;;;;;;;;4915855;29;20067;-71
2021/10/10 04:23:08;;;;;;;41.53;22.38;;;;;;;;;;4916791;29;20079;-71
2021/10/10 04:25:34;;;;;;;41.22;24.23;;;;;;;;;;4916207;29;20036;-70
2021/10/10 04:28:00;;;;;;;37.20;21.70;;;;;;;;;;4916512;29;20583;-70
2021/10/10 04:30:27;;;;;;;38.45;23.73;;;;;;;;;;4916063;29;20099;-68
2021/10/10 04:32:53;;;;;;;36.45;24.33;;;;;;;;;;4916129;29;20497;-70
2021/10/10 04:35:19;;;;;;;33.30;20.58;;;;;;;;;;4915670;29;20149;-68
2021/10/10 04:37:45;;;;;;;35.75;21.30;;;;;;;;;;4916334;29;20055;-71
2021/10/10 04:40:11;;;;;;;32.00;19.80;;;;;;;;;;4916116;29;20024;-71
2021/10/10 04:42:37;;;;;;;34.70;21.27;;;;;;;;;;4915877;29;20036;-69
2021/10/10 04:45:04;;;;;;;28.77;20.15;;;;;;;;;;4916436;29;20048;-69
2021/10/10 04:47:30;;;;;;;35.15;20.30;;;;;;;;;;4919393;29;20101;-72
2021/10/10 04:49:56;;;;;;;36.28;20.95;;;;;;;;;;4915824;29;20437;-71
2021/10/10 04:52:22;;;;;;;32.88;19.98;;;;;;;;;;4919101;29;20024;-71
2021/10/10 04:54:49;;;;;;;31.45;21.50;;;;;;;;;;4915287;29;20040;-68
2021/10/10 04:57:15;;;;;;;33.05;21.23;;;;;;;;;;4916091;29;20104;-70
2021/10/10 04:59:49;;;;;;;33.50;21.25;;;;;;;;;;4915904;29;20039;-71
2021/10/10 05:02:15;;;;;;;30.70;19.45;;;;;;;;;;4916261;29;20016;-70
2021/10/10 05:04:41;;;;;;;31.85;19.10;;;;;;;;;;4915599;29;20024;-68
2021/10/10 05:07:07;;;;;;;31.67;20.50;;;;;;;;;;4915105;29;20027;-71
2021/10/10 05:09:33;;;;;;;30.85;20.40;;;;;;;;;;4915127;29;20035;-71
2021/10/10 05:11:59;;;;;;;33.00;18.45;;;;;;;;;;4909548;29;20034;-69
2021/10/10 05:14:25;;;;;;;34.53;19.83;;;;;;;;;;4915684;29;20036;-72
2021/10/10 05:16:51;;;;;;;39.75;20.55;;;;;;;;;;4916459;29;20032;-72
2021/10/10 05:19:17;;;;;;;34.83;19.23;;;;;;;;;;4910788;29;20095;-74
2021/10/10 05:22:07;;;;;;;34.83;20.15;;;;;;;;;;4905178;29;20390;-72
2021/10/10 05:24:34;;;;;;;35.83;21.52;;;;;;;;;;4913510;29;20040;-71
2021/10/10 05:27:01;;;;;;;31.30;18.77;;;;;;;;;;4915121;29;20028;-71
2021/10/10 05:29:27;;;;;;;32.33;19.50;;;;;;;;;;4920012;29;20036;-71
2021/10/10 05:32:00;;;;;;;35.80;20.38;;;;;;;;;;4916556;29;20083;-71
2021/10/10 05:34:26;;;;;;;;;;;;;;;;;;4913983;29;20039;-72
2021/10/10 05:36:59;;;;;;;35.47;19.35;;;;;;;;;;4918841;29;19911;-71
2021/10/10 05:39:28;;;;;;;30.35;18.50;;;;;;;;;;4927862;29;20389;-71
2021/10/10 05:41:54;;;;;;;34.22;18.80;;;;;;;;;;4901378;29;20021;-71
2021/10/10 05:44:20;;;;;;;40.08;21.48;;;;;;;;;;4918967;29;20024;-70
2021/10/10 05:46:46;;;;;;;27.65;18.83;;;;;;;;;;4916760;29;20040;-74
2021/10/10 05:49:12;;;;;;;38.03;19.25;;;;;;;;;;4927394;29;20020;-78
2021/10/10 05:51:38;;;;;;;30.38;18.13;;;;;;;;;;4921900;29;20119;-70
2021/10/10 05:54:10;;;;;;;35.42;18.65;;;;;;;;;;4920086;29;20032;-77
2021/10/10 05:57:05;;;;;;;30.92;19.13;;;;;;;;;;4934931;29;20057;-80
2021/10/10 05:59:48;;;;;;;31.20;18.65;;;;;;;;;;4925858;29;20043;-72
2021/10/10 06:02:14;;;;;;;33.38;19.23;;;;;;;;;;4915988;29;20028;-71
2021/10/10 06:04:43;;;;;;;29.88;18.15;;;;;;;;;;4917374;29;20031;-70
2021/10/10 06:07:09;;;;;;;31.17;17.65;;;;;;;;;;4921540;29;20059;-72
2021/10/10 06:09:35;;;;;;;31.33;18.77;;;;;;;;;;4918387;29;20038;-73
2021/10/10 06:12:01;;;;;;;30.08;18.38;;;;;;;;;;4926477;29;20043;-69
2021/10/10 06:14:29;;;;;;;30.13;17.27;;;;;;;;;;4911397;29;20028;-73
2021/10/10 06:16:55;;;;;;;29.40;16.95;;;;;;;;;;4917955;29;20123;-70
2021/10/10 06:19:21;;;;;;;30.83;17.42;;;;;;;;;;4918527;29;20016;-75
2021/10/10 06:21:47;;;;;;;31.67;17.67;;;;;;;;;;4919143;29;20032;-70
2021/10/10 06:24:13;;;;;;;31.05;18.02;;;;;;;;;;4918703;29;20035;-71
2021/10/10 06:26:39;;;;;;;33.17;18.30;;;;;;;;;;4918389;29;20079;-72
2021/10/10 06:29:05;;;;;;;31.25;18.33;;;;;;;;;;4917089;29;20039;-68
2021/10/10 06:31:31;;;;;;;30.95;17.33;;;;;;;;;;4917828;29;20016;-70
2021/10/10 06:33:57;;;;;;;32.80;18.95;;;;;;;;;;4917667;29;20084;-74
2021/10/10 06:36:24;;;;;;;33.40;18.17;;;;;;;;;;4917861;29;20028;-70
2021/10/10 06:38:50;;;;;;;26.83;17.75;;;;;;;;;;4917076;29;20047;-70
2021/10/10 06:41:16;;;;;;;36.03;19.25;;;;;;;;;;4916901;29;20044;-75
2021/10/10 06:43:42;;;;;;;32.33;19.05;;;;;;;;;;4918096;29;20131;-69
2021/10/10 06:52:04;;;;;;;30.65;17.25;;;;;;;;;;5169039;23;20034;-81
2021/10/10 06:54:47;;;;;;;31.58;16.23;;;;;;;;;;5003401;28;20014;-79
2021/10/10 06:57:17;;;;;;;25.45;16.27;;;;;;;;;;4986316;28;20046;-69
2021/10/10 06:59:43;;;;;;;30.10;15.93;;;;;;;;;;4980792;28;20081;-67
2021/10/10 07:02:12;;;;;;;28.45;16.65;;;;;;;;;;4974223;28;20380;-68
2021/10/10 07:04:41;;;;;;;31.90;16.08;;;;;;;;;;4975941;28;20484;-71
2021/10/10 07:07:07;;;;;;;29.25;14.85;;;;;;;;;;4977495;28;20069;-70
2021/10/10 07:09:33;;;;;;;29.35;14.98;;;;;;;;;;4971632;28;20042;-72
2021/10/10 07:11:59;;;;;;;27.25;14.82;;;;;;;;;;4974082;28;20057;-70
2021/10/10 07:14:25;;;;;;;32.65;15.05;;;;;;;;;;4980645;28;20496;-71
2021/10/10 07:16:51;;;;;;;34.58;16.02;;;;;;;;;;4977828;28;20031;-71
2021/10/10 07:19:31;;;;;;;29.13;15.13;;;;;;;;;;4955941;28;20045;-70
2021/10/10 07:22:00;;;;;;;28.23;14.48;;;;;;;;;;4956277;28;20034;-70
2021/10/10 07:27:11;;;;;;;34.22;15.02;;;;;;;;;;4974916;28;20049;-76
2021/10/10 07:29:39;;;;;;;26.77;14.38;;;;;;;;;;4995281;28;20045;-78
2021/10/10 07:32:25;;;;;;;34.85;16.25;;;;;;;;;;5272292;23;20822;-75
2021/10/10 07:34:51;;;;;;;31.65;15.55;;;;;;;;;;4937815;29;20023;-76
2021/10/10 07:37:18;;;;;;;29.42;13.55;;;;;;;;;;4937859;29;20074;-74
2021/10/10 07:42:51;;;;;;;31.13;15.32;;;;;;;;;;4942014;29;20038;-69
2021/10/10 07:45:24;;;;;;;29.80;14.60;;;;;;;;;;4936391;29;20035;-72
2021/10/10 07:47:51;;;;;;;;;;;;;;;;;;4917622;29;20024;-70
2021/10/10 07:59:27;;;;;;;32.35;16.05;;;;;;;;;;5053801;23;20292;-72
2021/10/10 08:01:53;;;;;;;32.88;15.38;;;;;;;;;;4957338;28;20391;-73
2021/10/10 08:04:20;;;;;;;34.40;15.85;;;;;;;;;;4957637;28;20030;-72
2021/10/10 08:06:49;;;;;;;26.23;14.75;;;;;;;;;;4955274;28;20385;-73
2021/10/10 08:09:16;;;;;;;30.27;15.93;;;;;;;;;;4950650;28;20094;-73
2021/10/10 08:11:46;;;;;;;31.17;15.93;;;;;;;;;;4948337;28;20023;-72
2021/10/10 08:14:13;;;;;;;29.85;15.10;;;;;;;;;;4961756;28;20039;-73
2021/10/10 08:16:40;;;;;;;31.33;14.15;;;;;;;;;;4954368;28;20031;-73
2021/10/10 08:19:06;;;;;;;31.05;14.27;;;;;;;;;;4953499;28;20040;-74
2021/10/10 08:21:32;;;;;;;32.53;15.02;;;;;;;;;;4946975;28;20054;-73
2021/10/10 08:24:01;;;;;;;28.55;16.30;;;;;;;;;;4954335;28;20038;-73
2021/10/10 08:26:38;;;;;;;30.55;14.43;;;;;;;;;;4947271;28;20355;-75
2021/10/10 08:29:04;;;;;;;27.88;13.32;;;;;;;;;;4953655;28;20054;-74
2021/10/10 08:31:31;;;;;;;29.83;14.25;;;;;;;;;;4944018;28;20027;-71
2021/10/10 08:34:00;;;;;;;26.90;13.05;;;;;;;;;;4954231;28;20046;-71
2021/10/10 08:36:26;;;;;;;28.02;14.77;;;;;;;;;;4953957;28;20035;-70
2021/10/10 08:38:52;;;;;;;31.88;12.90;;;;;;;;;;4935374;29;20035;-71
2021/10/10 08:41:40;;;;;;;32.90;12.00;;;;;;;;;;4951809;28;20058;-72
2021/10/10 08:44:10;;;;;;;35.90;12.38;;;;;;;;;;4940687;28;20110;-71
2021/10/10 08:46:46;;;;;;;26.02;11.95;;;;;;;;;;4953817;28;20027;-72
2021/10/10 08:49:31;;;;;;;23.42;12.93;;;;;;;;;;4937928;29;20050;-72
2021/10/10 08:52:19;;;;;;;34.03;12.05;;;;;;;;;;4952009;28;20068;-71
2021/10/10 08:54:47;;;;;;;29.00;11.20;;;;;;;;;;4946061;28;20075;-71
2021/10/10 08:57:33;;;;;;;25.10;11.52;;;;;;;;;;4939180;28;20035;-70
2021/10/10 09:00:22;;;;;;;25.40;11.43;;;;;;;;;;4950745;28;20511;-73
2021/10/10 09:02:57;;;;;;;28.25;13.00;;;;;;;;;;4952039;28;20035;-71
2021/10/10 09:05:44;;;;;;;38.35;13.38;;;;;;;;;;4951633;28;20046;-70
2021/10/10 09:08:10;;;;;;;30.30;13.35;;;;;;;;;;4930168;29;20078;-73
2021/10/10 09:10:37;;;;;;;28.50;12.80;;;;;;;;;;4953621;28;20027;-71
2021/10/10 09:13:07;;;;;;;26.15;12.32;;;;;;;;;;4951754;28;20114;-71
2021/10/10 09:15:53;;;;;;;23.98;13.20;;;;;;;;;;4952747;28;20035;-72
2021/10/10 09:18:20;;;;;;;23.55;12.73;;;;;;;;;;4927043;29;20047;-72
2021/10/10 09:20:47;;;;;;;26.90;13.48;;;;;;;;;;4953118;28;20024;-71
2021/10/10 09:23:16;;;;;;;29.50;14.88;;;;;;;;;;4948632;28;20054;-70
2021/10/10 09:25:59;;;;;;;25.80;13.60;;;;;;;;;;4952552;28;20111;-72
2021/10/10 09:28:32;;;;;;;31.00;12.70;;;;;;;;;;4946636;28;20397;-71
2021/10/10 09:31:43;;;;;;;28.80;13.30;;;;;;;;;;4921457;28;20074;-70
2021/10/10 09:34:06;;;;;;;28.70;14.30;;;;;;;;;;4946342;28;20401;-71
2021/10/10 09:36:43;;;;;;;25.85;13.55;;;;;;;;;;4952239;28;20537;-71
2021/10/10 09:39:14;;;;;;;28.40;13.15;;;;;;;;;;4944798;28;20047;-70
2021/10/10 09:41:53;;;;;;;26.25;11.30;;;;;;;;;;4944866;28;20023;-69
2021/10/10 09:46:47;;;;;;;27.73;12.75;;;;;;;;;;4953173;28;20085;-70
2021/10/10 09:49:20;;;;;;;28.50;12.70;;;;;;;;;;4951716;28;20032;-71
2021/10/10 09:51:46;;;;;;;25.42;11.48;;;;;;;;;;4957418;28;20020;-73
2021/10/10 09:57:28;;;;;;;23.20;11.57;;;;;;;;;;4901785;29;20036;-72
2021/10/10 09:59:55;;;;;;;29.25;11.30;;;;;;;;;;4897557;29;20052;-71
2021/10/10 10:02:39;;;;;;;27.90;11.43;;;;;;;;;;4911131;29;20115;-74
2021/10/10 10:05:05;;;;;;;28.05;12.65;;;;;;;;;;4912763;29;20032;-70
2021/10/10 10:07:31;;;;;;;27.83;11.90;;;;;;;;;;4911686;29;20530;-70
2021/10/10 10:09:58;;;;;;;25.10;11.90;;;;;;;;;;4912319;29;20043;-72
2021/10/10 10:12:30;;;;;;;20.85;11.25;;;;;;;;;;4912331;29;20274;-68
2021/10/10 10:14:56;;;;;;;23.60;12.25;;;;;;;;;;4910792;29;20410;-72
2021/10/10 10:17:23;;;;;;;27.35;12.15;;;;;;;;;;4909444;29;20075;-72
2021/10/10 10:19:50;;;;;;;32.58;13.50;;;;;;;;;;4916381;29;20061;-76
2021/10/10 10:22:20;;;;;;;24.15;11.70;;;;;;;;;;4924318;29;20052;-70
2021/10/10 10:24:47;;;;;;;26.63;11.93;;;;;;;;;;4914579;29;20036;-72
2021/10/10 10:27:15;;;;;;;22.63;11.27;;;;;;;;;;4919111;29;20040;-70
2021/10/10 10:29:51;;;;;;;19.77;10.82;;;;;;;;;;4921159;29;20039;-78
2021/10/10 10:32:29;;;;;;;25.35;11.80;;;;;;;;;;4927668;29;20115;-76
2021/10/10 10:34:57;;;;;;;26.02;10.57;;;;;;;;;;4940760;29;20046;-71
2021/10/10 10:37:44;;;;;;;23.38;11.45;;;;;;;;;;4957044;28;20102;-72
2021/10/10 10:40:17;;;;;;;17.88;10.68;;;;;;;;;;4968550;29;20043;-80
2021/10/10 10:45:39;;;;;;;21.45;10.55;;;;;;;;;;5076463;23;20282;-68
2021/10/10 10:51:26;;;;;;;23.00;11.38;;;;;;;;;;4901264;29;20124;-71
2021/10/10 10:53:52;;;;;;;27.35;13.45;;;;;;;;;;4893610;29;20037;-72
2021/10/10 10:56:25;;;;;;;25.63;12.35;;;;;;;;;;4896267;29;20084;-73
2021/10/10 10:58:53;;;;;;;27.92;13.25;;;;;;;;;;4895605;29;20507;-73
2021/10/10 11:01:19;;;;;;;20.30;12.10;;;;;;;;;;4900071;29;20089;-72
2021/10/10 11:03:46;;;;;;;15.93;9.52;;;;;;;;;;4897077;29;20029;-73
2021/10/10 11:06:12;;;;;;;22.33;9.32;;;;;;;;;;4896945;29;20029;-76
2021/10/10 11:08:46;;;;;;;25.00;10.20;;;;;;;;;;4886825;29;20047;-73
2021/10/10 11:11:25;;;;;;;20.75;8.60;;;;;;;;;;4880025;29;20430;-74
2021/10/10 11:14:01;;;;;;;23.42;10.10;;;;;;;;;;4898486;29;20041;-73
2021/10/10 11:16:34;;;;;;;18.63;8.68;;;;;;;;;;4903472;29;20067;-70
2021/10/10 11:19:12;;;;;;;21.90;9.40;;;;;;;;;;4901544;29;20052;-71
2021/10/10 11:22:05;;;;;;;18.15;8.82;;;;;;;;;;4907427;29;20024;-71
2021/10/10 11:24:31;;;;;;;20.85;9.30;;;;;;;;;;4914333;29;20107;-71
2021/10/10 11:26:59;;;;;;;14.52;8.05;;;;;;;;;;4935535;29;20036;-70
2021/10/10 11:29:27;;;;;;;22.10;7.60;;;;;;;;;;4935005;29;20035;-73
2021/10/10 11:31:55;;;;;;;25.48;8.48;;;;;;;;;;4938598;29;20023;-71
2021/10/10 11:34:23;;;;;;;19.30;7.95;;;;;;;;;;4935798;29;20020;-71
2021/10/10 11:36:53;;;;;;;19.60;7.97;;;;;;;;;;4936542;29;20067;-70
2021/10/10 11:39:36;;;;;;;14.10;7.65;;;;;;;;;;4936280;29;20035;-72
2021/10/10 11:42:10;;;;;;;18.23;8.13;;;;;;;;;;4935970;29;20039;-72
2021/10/10 11:44:39;;;;;;;19.10;9.20;;;;;;;;;;4934840;29;20290;-71
2021/10/10 11:47:08;;;;;;;19.63;8.93;;;;;;;;;;4920701;29;20028;-73
2021/10/10 11:49:46;;;;;;;19.23;8.10;;;;;;;;;;4936276;29;20039;-72
2021/10/10 11:52:24;;;;;;;15.00;8.55;;;;;;;;;;4928118;29;20091;-71
2021/10/10 11:55:25;;;;;;;20.98;9.18;;;;;;;;;;4936869;29;20020;-71
2021/10/10 11:57:56;;;;;;;17.23;9.98;;;;;;;;;;4915486;29;20036;-71
2021/10/10 12:00:27;;;;;;;20.83;10.88;;;;;;;;;;4948642;28;20035;-71
2021/10/10 12:02:53;;;;;;;22.05;10.75;;;;;;;;;;4934612;29;20043;-71
2021/10/10 12:05:21;;;;;;;23.92;12.38;;;;;;;;;;4935397;29;20107;-70
2021/10/10 12:07:55;;;;;;;27.33;14.60;;;;;;;;;;4950723;28;20114;-71
2021/10/10 12:10:21;;;;;;;34.63;17.45;;;;;;;;;;4935002;29;20047;-72
2021/10/10 12:12:48;;;;;;;29.42;16.15;;;;;;;;;;4935327;29;20026;-71
2021/10/10 12:15:18;;;;;;;32.92;17.35;;;;;;;;;;4935462;29;20106;-71
2021/10/10 12:17:48;;;;;;;31.42;18.48;;;;;;;;;;4935603;29;20026;-74
2021/10/10 12:20:17;;;;;;;29.63;16.73;;;;;;;;;;4934560;29;20059;-72
2021/10/10 12:22:53;;;;;;;34.30;16.55;;;;;;;;;;4934852;29;20027;-72
2021/10/10 12:25:24;;;;;;;23.10;14.77;;;;;;;;;;4940638;29;20082;-71
2021/10/10 12:28:04;;;;;;;27.50;15.30;;;;;;;;;;4949069;28;20528;-71
2021/10/10 12:30:31;;;;;;;21.45;14.02;;;;;;;;;;4932348;29;20036;-70
2021/10/10 12:32:58;;;;;;;29.33;14.02;;;;;;;;;;4935774;29;20429;-71
2021/10/10 12:35:25;;;;;;;24.63;13.48;;;;;;;;;;4935013;29;20027;-70
2021/10/10 12:37:59;;;;;;;22.23;12.55;;;;;;;;;;4934247;29;20223;-71
2021/10/10 12:40:26;;;;;;;22.33;12.20;;;;;;;;;;4934317;29;20031;-70
2021/10/10 12:42:52;;;;;;;21.83;12.55;;;;;;;;;;4934004;29;20040;-72
2021/10/10 12:45:32;;;;;;;20.05;11.27;;;;;;;;;;4933692;29;20497;-71
2021/10/10 12:48:02;;;;;;;22.52;11.70;;;;;;;;;;4934781;29;20106;-71
2021/10/10 12:50:29;;;;;;;21.08;11.48;;;;;;;;;;4932389;29;20027;-71
2021/10/10 12:52:55;;;;;;;28.27;12.50;;;;;;;;;;4933863;29;20078;-71
2021/10/10 12:55:23;;;;;;;24.58;12.55;;;;;;;;;;4933950;29;20386;-72
2021/10/10 12:57:52;;;;;;;20.05;12.23;;;;;;;;;;4933197;29;20634;-70
2021/10/10 13:00:19;;;;;;;25.15;12.23;;;;;;;;;;4933038;29;20032;-70
2021/10/10 13:02:47;;;;;;;29.83;12.90;;;;;;;;;;4933657;29;20032;-71
2021/10/10 13:05:13;;;;;;;20.38;12.88;;;;;;;;;;4931526;29;20141;-73
2021/10/10 13:07:39;;;;;;;22.58;13.05;;;;;;;;;;4933614;29;20036;-70
2021/10/10 13:10:06;;;;;;;24.23;13.43;;;;;;;;;;4933726;29;20078;-73
2021/10/10 13:12:45;;;;;;;23.33;13.52;;;;;;;;;;4933948;29;20035;-74
2021/10/10 13:15:12;;;;;;;21.35;12.35;;;;;;;;;;4934350;29;20489;-70
2021/10/10 13:17:41;;;;;;;20.70;12.95;;;;;;;;;;4916233;29;20047;-74
2021/10/10 13:20:08;;;;;;;18.27;12.70;;;;;;;;;;4924736;29;20028;-71
2021/10/10 13:22:34;;;;;;;28.83;13.40;;;;;;;;;;4934511;29;20525;-71
2021/10/10 13:25:03;;;;;;;22.95;12.57;;;;;;;;;;4933922;29;20032;-71
2021/10/10 13:27:32;;;;;;;20.13;13.10;;;;;;;;;;4933922;29;20028;-72
2021/10/10 13:30:27;;;;;;;25.13;13.43;;;;;;;;;;4940842;28;20027;-74
2021/10/10 13:32:53;;;;;;;22.52;13.05;;;;;;;;;;4894530;29;20495;-70
2021/10/10 13:35:19;;;;;;;27.30;14.93;;;;;;;;;;4894318;29;20838;-71
2021/10/10 13:37:45;;;;;;;25.17;16.02;;;;;;;;;;4881269;29;20503;-71
2021/10/10 13:46:28;;;;;;;26.10;16.25;;;;;;;;;;4827553;29;20049;-72
2021/10/10 13:49:13;;;;;;;25.92;15.60;;;;;;;;;;4818589;29;20446;-73
2021/10/10 13:52:01;;;;;;;23.15;16.02;;;;;;;;;;4809640;29;20038;-73
2021/10/10 13:54:27;;;;;;;26.70;15.70;;;;;;;;;;4801126;29;20045;-70
2021/10/10 13:56:53;;;;;;;26.77;15.90;;;;;;;;;;4824883;29;20047;-73
2021/10/10 13:59:25;;;;;;;23.83;16.05;;;;;;;;;;4823370;29;20038;-72
2021/10/10 14:01:51;;;;;;;20.20;16.05;;;;;;;;;;4822125;29;20030;-72
2021/10/10 14:04:17;;;;;;;26.00;15.48;;;;;;;;;;4823047;29;20052;-73
2021/10/10 14:06:43;;;;;;;26.90;16.10;;;;;;;;;;4824481;29;20050;-72
2021/10/10 14:09:09;;;;;;;23.80;15.63;;;;;;;;;;4827282;29;20075;-70
2021/10/10 14:11:35;;;;;;;27.20;16.35;;;;;;;;;;4841627;29;20038;-70
2021/10/10 14:14:01;;;;;;;27.00;16.00;;;;;;;;;;4840771;29;20049;-71
2021/10/10 14:16:27;;;;;;;28.13;15.50;;;;;;;;;;4845164;29;20525;-72
2021/10/10 14:18:54;;;;;;;27.40;16.88;;;;;;;;;;4851169;29;20053;-74
2021/10/10 14:21:20;;;;;;;30.40;17.10;;;;;;;;;;4877473;29;20037;-69
2021/10/10 14:23:46;;;;;;;24.08;15.35;;;;;;;;;;4927091;29;20050;-69
2021/10/10 14:26:12;;;;;;;26.30;13.35;;;;;;;;;;4947259;28;20066;-69
2021/10/10 14:28:38;;;;;;;24.35;13.00;;;;;;;;;;4945955;29;20118;-70
2021/10/10 14:31:11;;;;;;;18.50;10.73;;;;;;;;;;4952884;29;20023;-70
2021/10/10 14:33:39;;;;;;;20.40;10.52;;;;;;;;;;4937297;29;20537;-70
2021/10/10 14:36:05;;;;;;;20.77;10.05;;;;;;;;;;4939586;29;20469;-67
2021/10/10 14:38:31;;;;;;;17.77;9.60;;;;;;;;;;4939512;28;20043;-66
2021/10/10 14:41:12;;;;;;;19.58;9.40;;;;;;;;;;4951432;29;20023;-70
2021/10/10 14:43:42;;;;;;;16.95;9.57;;;;;;;;;;4930987;29;20048;-67
2021/10/10 14:46:10;;;;;;;18.90;8.95;;;;;;;;;;4956650;29;20038;-68
2021/10/10 14:48:36;;;;;;;19.05;8.95;;;;;;;;;;4947323;29;20031;-70
2021/10/10 14:51:04;;;;;;;18.08;8.80;;;;;;;;;;4953450;29;20050;-65
2021/10/10 14:53:30;;;;;;;14.77;8.57;;;;;;;;;;4929014;29;20034;-71
2021/10/10 14:55:57;;;;;;;14.95;8.43;;;;;;;;;;4941892;29;20074;-67
2021/10/10 14:58:25;;;;;;;15.90;8.55;;;;;;;;;;4939858;29;20042;-70
2021/10/10 15:00:55;;;;;;;18.50;9.15;;;;;;;;;;4947359;29;20478;-68
2021/10/10 15:03:21;;;;;;;19.25;8.75;;;;;;;;;;4924745;29;20032;-69
2021/10/10 15:05:49;;;;;;;21.45;9.50;;;;;;;;;;4934254;28;20477;-69
2021/10/10 15:08:16;;;;;;;17.65;8.15;;;;;;;;;;4934953;29;20074;-67
2021/10/10 15:10:44;;;;;;;16.73;9.45;;;;;;;;;;4950557;28;20862;-68